Time;durP1;ratioP1;P1;durP2;ratioP2;P2;SDS_P1;SDS_P2;PMS_P1;PMS_P2;Temp;Humidity;BMP_temperature;BMP_pressure;BME280_temperature;BME280_humidity;BME280_pressure;Samples;Min_cycle;Max_cycle;Signal;HPM_P1;HPM_P2
2023/07/02 00:00:43;;;;;;;3.63;2.90;;;16.30;99.90;;;;;;5099342;28;20678;-55
2023/07/02 00:03:09;;;;;;;4.60;3.90;;;16.30;99.90;;;;;;5098052;28;20176;-54
2023/07/02 00:05:36;;;;;;;4.83;4.07;;;16.30;99.90;;;;;;5099630;28;20167;-50
2023/07/02 00:08:02;;;;;;;8.80;4.07;;;16.30;99.90;;;;;;5100100;28;20149;-52
2023/07/02 00:10:42;;;;;;;5.00;3.33;;;16.30;99.90;;;;;;5100756;28;20168;-53
2023/07/02 00:13:10;;;;;;;8.77;4.23;;;16.30;99.90;;;;;;5099779;28;20192;-53
2023/07/02 00:15:37;;;;;;;6.67;3.63;;;16.30;99.90;;;;;;5100403;28;20176;-54
2023/07/02 00:18:04;;;;;;;5.37;3.17;;;16.20;99.90;;;;;;5100174;28;20541;-52
2023/07/02 00:20:30;;;;;;;5.23;3.07;;;16.20;99.90;;;;;;5099477;28;20278;-53
2023/07/02 00:22:57;;;;;;;5.20;3.60;;;16.10;99.90;;;;;;5099150;28;20256;-51
2023/07/02 00:25:24;;;;;;;6.97;3.53;;;16.10;99.90;;;;;;5099343;28;20160;-52
2023/07/02 00:27:52;;;;;;;7.00;4.33;;;16.10;99.90;;;;;;5098837;28;20164;-53
2023/07/02 00:30:18;;;;;;;4.67;3.97;;;16.10;99.90;;;;;;5098465;28;20171;-52
2023/07/02 00:32:45;;;;;;;8.87;4.17;;;16.10;99.90;;;;;;5096586;28;20471;-55
2023/07/02 00:35:11;;;;;;;5.13;4.13;;;16.10;99.90;;;;;;5100300;28;20168;-54
2023/07/02 00:37:38;;;;;;;5.17;3.93;;;16.10;99.90;;;;;;5100919;28;20155;-56
2023/07/02 00:40:06;;;;;;;8.73;4.80;;;16.10;99.90;;;;;;5099480;28;20444;-51
2023/07/02 00:42:32;;;;;;;5.40;4.70;;;16.10;99.90;;;;;;5099566;28;20234;-55
2023/07/02 00:45:02;;;;;;;7.27;4.20;;;16.10;99.90;;;;;;5099140;28;20180;-49
2023/07/02 00:47:29;;;;;;;8.00;4.47;;;16.00;99.90;;;;;;5099109;28;20180;-56
2023/07/02 00:49:54;;;;;;;6.70;4.70;;;16.10;99.90;;;;;;5083057;28;20267;-51
2023/07/02 00:52:20;;;;;;;6.97;3.80;;;16.00;99.90;;;;;;5097297;28;20421;-52
2023/07/02 00:54:46;;;;;;;7.77;4.20;;;16.00;99.90;;;;;;5097574;28;20227;-52
2023/07/02 00:57:12;;;;;;;10.23;4.13;;;16.00;99.90;;;;;;5098587;28;20449;-55
2023/07/02 00:59:38;;;;;;;4.13;3.33;;;15.90;99.90;;;;;;5097922;28;20526;-54
2023/07/02 01:02:07;;;;;;;7.80;3.50;;;16.00;99.90;;;;;;5098091;28;20176;-51
2023/07/02 01:04:33;;;;;;;4.77;3.90;;;16.00;99.90;;;;;;5097909;28;20536;-54
2023/07/02 01:07:00;;;;;;;4.93;3.60;;;16.00;99.90;;;;;;5098392;28;20356;-51
2023/07/02 01:09:26;;;;;;;5.73;4.07;;;16.00;99.90;;;;;;5098974;28;20216;-55
2023/07/02 01:11:56;;;;;;;8.77;4.87;;;16.00;99.90;;;;;;5099899;28;20172;-57
2023/07/02 01:14:38;;;;;;;9.60;3.70;;;16.10;99.90;;;;;;5098603;28;20200;-49
2023/07/02 01:17:05;;;;;;;7.33;3.73;;;16.00;99.90;;;;;;5098330;28;20175;-54
2023/07/02 01:19:52;;;;;;;5.70;3.90;;;16.00;99.90;;;;;;5097817;28;20305;-57
2023/07/02 01:22:24;;;;;;;7.10;4.00;;;16.00;99.90;;;;;;5097259;28;20194;-52
2023/07/02 01:24:51;;;;;;;7.03;3.60;;;16.00;99.90;;;;;;5097206;28;20333;-55
2023/07/02 01:27:17;;;;;;;6.33;4.10;;;16.00;99.90;;;;;;5098135;28;20157;-54
2023/07/02 01:29:46;;;;;;;8.77;3.97;;;15.90;99.90;;;;;;5097749;28;20180;-51
2023/07/02 01:32:13;;;;;;;9.77;4.30;;;16.00;99.90;;;;;;5097400;28;20322;-54
2023/07/02 01:34:39;;;;;;;4.17;3.67;;;15.90;99.90;;;;;;5096779;28;20313;-51
2023/07/02 01:37:05;;;;;;;8.57;4.40;;;16.00;99.90;;;;;;5098223;28;20180;-55
2023/07/02 01:39:31;;;;;;;9.17;4.47;;;16.00;99.90;;;;;;5097271;28;20647;-53
2023/07/02 01:42:15;;;;;;;4.03;3.73;;;16.00;99.90;;;;;;5097905;28;20174;-53
2023/07/02 01:44:45;;;;;;;10.23;4.47;;;15.90;99.90;;;;;;5098061;28;20567;-51
2023/07/02 01:47:11;;;;;;;8.13;4.20;;;15.90;99.90;;;;;;5097402;28;20735;-56
2023/07/02 01:49:37;;;;;;;11.37;4.00;;;15.90;99.90;;;;;;5095301;28;20172;-54
2023/07/02 01:52:04;;;;;;;6.60;4.70;;;15.90;99.90;;;;;;5094061;28;20175;-51
2023/07/02 01:54:33;;;;;;;14.57;5.43;;;16.00;99.90;;;;;;5091773;28;20209;-53
2023/07/02 01:56:59;;;;;;;4.40;4.00;;;15.90;99.90;;;;;;5092124;28;20442;-54
2023/07/02 01:59:25;;;;;;;6.77;4.83;;;15.90;99.90;;;;;;5092143;28;20236;-55
2023/07/02 02:01:51;;;;;;;9.00;5.07;;;15.90;99.90;;;;;;5091266;28;20176;-56
2023/07/02 02:04:20;;;;;;;7.10;4.80;;;15.90;99.90;;;;;;5091817;28;20168;-53
2023/07/02 02:06:46;;;;;;;8.33;4.33;;;15.90;99.90;;;;;;5093161;28;20232;-53
2023/07/02 02:09:12;;;;;;;5.60;3.70;;;15.90;99.90;;;;;;5091856;28;20597;-52
2023/07/02 02:11:46;;;;;;;8.50;4.43;;;15.90;99.90;;;;;;5091489;28;20164;-54
2023/07/02 02:14:12;;;;;;;7.07;4.40;;;15.90;99.90;;;;;;5092844;28;20378;-51
2023/07/02 02:16:38;;;;;;;5.77;4.70;;;15.90;99.90;;;;;;5095383;28;20164;-52
2023/07/02 02:19:04;;;;;;;5.63;3.87;;;15.80;99.90;;;;;;5094182;28;20417;-54
2023/07/02 02:21:30;;;;;;;6.73;4.77;;;15.80;99.90;;;;;;5097081;28;20164;-54
2023/07/02 02:23:56;;;;;;;9.20;4.67;;;15.80;99.90;;;;;;5096975;28;20494;-54
2023/07/02 02:26:22;;;;;;;7.97;4.50;;;15.90;99.90;;;;;;5096991;28;20262;-52
2023/07/02 02:28:49;;;;;;;8.37;5.50;;;15.90;99.90;;;;;;5096629;28;20190;-53
2023/07/02 02:31:15;;;;;;;9.37;4.47;;;15.80;99.90;;;;;;5096686;28;20243;-57
2023/07/02 02:33:41;;;;;;;12.90;4.83;;;15.80;99.90;;;;;;5098117;28;20222;-54
2023/07/02 02:36:06;;;;;;;8.73;4.67;;;15.80;99.90;;;;;;5098027;28;20433;-54
2023/07/02 02:38:34;;;;;;;15.40;13.97;;;15.80;99.90;;;;;;5098621;28;20176;-54
2023/07/02 02:41:01;;;;;;;7.40;4.20;;;15.80;99.90;;;;;;5098803;28;20175;-52
2023/07/02 02:43:27;;;;;;;11.00;5.10;;;15.80;99.90;;;;;;5098310;28;20190;-51
2023/07/02 02:45:53;;;;;;;8.00;4.93;;;15.80;99.90;;;;;;5097968;28;20291;-52
2023/07/02 02:48:18;;;;;;;8.33;5.00;;;15.80;99.90;;;;;;5098392;28;20183;-53
2023/07/02 02:50:45;;;;;;;8.93;5.10;;;15.70;99.90;;;;;;5099191;28;20161;-54
2023/07/02 02:53:11;;;;;;;9.30;5.53;;;15.70;99.90;;;;;;5097905;28;20713;-52
2023/07/02 02:55:37;;;;;;;8.93;5.17;;;15.70;99.90;;;;;;5101119;28;20160;-55
2023/07/02 02:58:03;;;;;;;7.53;4.73;;;15.70;99.90;;;;;;5101750;28;20299;-51
2023/07/02 03:00:29;;;;;;;11.27;4.87;;;15.70;99.90;;;;;;5102580;28;20237;-55
2023/07/02 03:02:55;;;;;;;11.70;4.57;;;15.70;99.90;;;;;;5101866;28;20212;-56
2023/07/02 03:05:24;;;;;;;7.13;5.00;;;15.70;99.90;;;;;;5102008;28;20149;-55
2023/07/02 03:08:08;;;;;;;9.37;4.77;;;15.70;99.90;;;;;;5101578;28;20174;-54
2023/07/02 03:10:33;;;;;;;7.70;4.60;;;15.70;99.90;;;;;;5100864;28;20208;-54
2023/07/02 03:12:59;;;;;;;16.70;14.73;;;15.70;99.90;;;;;;5101219;28;20179;-54
2023/07/02 03:15:25;;;;;;;9.53;4.90;;;15.60;99.90;;;;;;5102471;28;20548;-55
2023/07/02 03:17:50;;;;;;;12.07;4.90;;;15.60;99.90;;;;;;5100753;28;20164;-53
2023/07/02 03:20:16;;;;;;;8.57;5.27;;;15.60;99.90;;;;;;5100628;28;20164;-53
2023/07/02 03:22:42;;;;;;;10.83;5.03;;;15.60;99.90;;;;;;5097508;28;20247;-55
2023/07/02 03:25:08;;;;;;;7.60;4.33;;;15.60;99.90;;;;;;5097583;28;20191;-52
2023/07/02 03:27:34;;;;;;;11.53;4.97;;;15.60;99.90;;;;;;5097405;28;20575;-51
2023/07/02 03:29:59;;;;;;;10.83;4.33;;;15.70;99.90;;;;;;5097590;28;20602;-53
2023/07/02 03:32:25;;;;;;;9.87;5.80;;;15.60;99.90;;;;;;5098376;28;20646;-53
2023/07/02 03:34:51;;;;;;;9.50;5.50;;;15.60;99.90;;;;;;5097493;28;20200;-52
2023/07/02 03:37:16;;;;;;;10.33;4.70;;;15.60;99.90;;;;;;5098140;28;20189;-53
2023/07/02 03:39:41;;;;;;;9.73;6.57;;;15.60;99.90;;;;;;5098912;28;20192;-56
2023/07/02 03:42:07;;;;;;;7.87;4.90;;;15.60;99.90;;;;;;5099344;28;20450;-53
2023/07/02 03:44:33;;;;;;;10.37;5.03;;;15.60;99.90;;;;;;5099234;28;20180;-57
2023/07/02 03:46:59;;;;;;;9.80;5.70;;;15.50;99.90;;;;;;5098471;28;20175;-57
2023/07/02 03:49:24;;;;;;;11.97;5.50;;;15.50;99.90;;;;;;5097988;28;20232;-54
2023/07/02 03:51:50;;;;;;;10.00;5.90;;;15.50;99.90;;;;;;5097464;28;20230;-50
2023/07/02 03:54:16;;;;;;;12.33;6.20;;;15.60;99.90;;;;;;5096723;28;20199;-50
2023/07/02 03:56:42;;;;;;;14.93;5.93;;;15.50;99.90;;;;;;5098639;28;20255;-53
2023/07/02 03:59:07;;;;;;;11.70;6.40;;;15.50;99.90;;;;;;5096685;28;20237;-56
2023/07/02 04:01:33;;;;;;;10.23;6.10;;;15.60;99.90;;;;;;5098012;28;20183;-50
2023/07/02 04:03:58;;;;;;;11.33;5.73;;;15.50;99.90;;;;;;5096928;28;20168;-55
2023/07/02 04:06:24;;;;;;;15.07;6.10;;;15.50;99.90;;;;;;5096083;28;20176;-55
2023/07/02 04:08:50;;;;;;;10.77;5.77;;;15.50;99.90;;;;;;5096701;28;20175;-54
2023/07/02 04:11:15;;;;;;;12.07;6.27;;;15.50;99.90;;;;;;5096144;28;20486;-55
2023/07/02 04:13:41;;;;;;;10.13;5.33;;;15.60;99.90;;;;;;5096250;28;20213;-52
2023/07/02 04:16:07;;;;;;;10.77;5.53;;;15.60;99.90;;;;;;5095127;28;20182;-55
2023/07/02 04:18:33;;;;;;;14.03;5.53;;;15.60;99.90;;;;;;5094158;28;20168;-51
2023/07/02 04:20:59;;;;;;;10.47;5.10;;;15.60;99.90;;;;;;5093638;28;20164;-53
2023/07/02 04:23:25;;;;;;;7.97;5.50;;;15.60;99.90;;;;;;5094309;28;20174;-53
2023/07/02 04:25:50;;;;;;;12.37;5.73;;;15.60;99.90;;;;;;5093217;28;20164;-51
2023/07/02 04:28:16;;;;;;;12.73;6.27;;;15.60;99.90;;;;;;5093403;28;20182;-57
2023/07/02 04:30:42;;;;;;;13.90;6.17;;;15.60;99.90;;;;;;5094309;28;20220;-55
2023/07/02 04:33:08;;;;;;;11.30;5.30;;;15.60;99.90;;;;;;5095637;28;20228;-53
2023/07/02 04:35:34;;;;;;;9.20;5.60;;;15.60;99.90;;;;;;5094864;28;20165;-54
2023/07/02 04:38:03;;;;;;;12.50;5.60;;;15.60;99.90;;;;;;5094388;28;20516;-52
2023/07/02 04:40:28;;;;;;;16.53;6.37;;;15.60;99.90;;;;;;5094827;28;20456;-55
2023/07/02 04:43:00;;;;;;;12.40;5.60;;;15.60;99.90;;;;;;5095167;28;20180;-53
2023/07/02 04:45:27;;;;;;;10.60;4.97;;;15.60;99.90;;;;;;5094367;28;20175;-55
2023/07/02 04:47:52;;;;;;;11.23;5.50;;;15.60;99.90;;;;;;5094992;28;20202;-55
2023/07/02 04:50:19;;;;;;;13.03;5.57;;;15.60;99.90;;;;;;5095801;28;20172;-54
2023/07/02 04:52:45;;;;;;;14.73;5.80;;;15.60;99.90;;;;;;5095268;28;20170;-53
2023/07/02 04:55:10;;;;;;;13.87;6.13;;;15.60;99.90;;;;;;5093911;28;20199;-50
2023/07/02 04:57:36;;;;;;;14.57;6.07;;;15.60;99.90;;;;;;5093398;28;20186;-57
2023/07/02 05:00:05;;;;;;;13.43;6.60;;;15.60;99.90;;;;;;5092078;28;20259;-53
2023/07/02 05:02:31;;;;;;;14.07;6.07;;;15.60;99.90;;;;;;5091495;28;20167;-55
2023/07/02 05:04:57;;;;;;;14.43;5.73;;;15.60;99.90;;;;;;5090819;28;20259;-55
2023/07/02 05:07:22;;;;;;;14.33;6.63;;;15.70;99.90;;;;;;5088866;28;20486;-54
2023/07/02 05:09:49;;;;;;;14.40;5.60;;;15.70;99.90;;;;;;5087985;28;20168;-53
2023/07/02 05:12:15;;;;;;;14.20;6.33;;;15.60;99.90;;;;;;5091670;28;20164;-56
2023/07/02 05:14:40;;;;;;;13.23;6.37;;;15.60;99.90;;;;;;5091190;28;20214;-50
2023/07/02 05:17:06;;;;;;;13.53;6.67;;;15.60;99.90;;;;;;5092110;28;20180;-54
2023/07/02 05:19:31;;;;;;;21.97;7.33;;;15.60;99.90;;;;;;5092975;28;20164;-53
2023/07/02 05:21:57;;;;;;;15.50;6.33;;;15.60;99.90;;;;;;5092744;28;20167;-54
2023/07/02 05:24:23;;;;;;;15.80;8.27;;;15.70;99.90;;;;;;5092352;28;20168;-55
2023/07/02 05:26:50;;;;;;;13.40;6.27;;;15.70;99.90;;;;;;5093988;28;20423;-55
2023/07/02 05:29:16;;;;;;;14.50;6.80;;;15.70;99.90;;;;;;5092891;28;20472;-52
2023/07/02 05:31:42;;;;;;;14.80;6.47;;;15.70;99.90;;;;;;5092806;28;20259;-53
2023/07/02 05:34:08;;;;;;;15.20;6.57;;;15.70;99.90;;;;;;5093328;28;20223;-52
2023/07/02 05:36:34;;;;;;;16.87;6.77;;;15.70;99.90;;;;;;5092758;28;20167;-55
2023/07/02 05:39:00;;;;;;;15.33;6.93;;;15.70;99.90;;;;;;5093706;28;20156;-54
2023/07/02 05:41:30;;;;;;;16.33;6.90;;;15.80;99.90;;;;;;5093084;28;20167;-50
2023/07/02 05:43:58;;;;;;;15.00;7.30;;;15.80;99.90;;;;;;5091060;28;20580;-57
2023/07/02 05:46:24;;;;;;;14.93;6.70;;;15.80;99.90;;;;;;5091459;28;20636;-54
2023/07/02 05:48:50;;;;;;;22.77;6.73;;;15.80;99.90;;;;;;5090309;28;20340;-53
2023/07/02 05:51:23;;;;;;;22.23;7.27;;;15.90;99.90;;;;;;5090185;28;20179;-50
2023/07/02 05:53:49;;;;;;;14.97;6.60;;;15.90;99.90;;;;;;5090847;28;20276;-53
2023/07/02 05:56:15;;;;;;;20.33;8.40;;;15.90;99.90;;;;;;5090599;28;20179;-54
2023/07/02 05:58:41;;;;;;;11.63;5.97;;;15.90;99.90;;;;;;5093477;28;20168;-55
2023/07/02 06:01:07;;;;;;;15.60;6.87;;;15.90;99.90;;;;;;5092828;28;20173;-54
2023/07/02 06:03:33;;;;;;;19.80;7.67;;;15.90;99.90;;;;;;5093292;28;20175;-50
2023/07/02 06:05:59;;;;;;;18.37;7.53;;;15.90;99.90;;;;;;5094262;28;20264;-55
2023/07/02 06:08:24;;;;;;;16.97;7.43;;;16.00;99.90;;;;;;5096272;28;20180;-51
2023/07/02 06:10:50;;;;;;;22.67;7.77;;;16.00;99.90;;;;;;5096041;28;20168;-52
2023/07/02 06:13:16;;;;;;;24.23;8.43;;;16.00;99.90;;;;;;5094722;28;20196;-52
2023/07/02 06:15:43;;;;;;;19.10;7.70;;;16.00;99.90;;;;;;5094512;28;20159;-57
2023/07/02 06:18:08;;;;;;;14.13;7.03;;;16.00;99.90;;;;;;5094467;28;20468;-54
2023/07/02 06:20:34;;;;;;;24.03;7.57;;;16.10;99.90;;;;;;5093720;28;20602;-55
2023/07/02 06:22:59;;;;;;;21.97;8.40;;;16.10;99.90;;;;;;5094142;28;20172;-53
2023/07/02 06:25:25;;;;;;;20.57;8.07;;;16.10;99.90;;;;;;5095009;28;20233;-54
2023/07/02 06:27:53;;;;;;;18.70;8.60;;;16.10;99.90;;;;;;5095630;28;20167;-53
2023/07/02 06:30:19;;;;;;;19.40;9.13;;;16.20;99.90;;;;;;5098476;28;20219;-53
2023/07/02 06:32:44;;;;;;;20.53;8.43;;;16.20;99.90;;;;;;5100356;28;20164;-53
2023/07/02 06:35:10;;;;;;;16.70;8.87;;;16.20;99.90;;;;;;5099511;28;20196;-55
2023/07/02 06:37:36;;;;;;;17.40;9.67;;;16.30;99.90;;;;;;5096409;28;20248;-52
2023/07/02 06:40:03;;;;;;;21.87;10.53;;;16.30;99.90;;;;;;5098027;28;20168;-54
2023/07/02 06:42:28;;;;;;;23.70;12.70;;;16.20;99.90;;;;;;5097768;28;20248;-54
2023/07/02 06:44:54;;;;;;;25.57;12.50;;;16.30;99.90;;;;;;5096792;28;20325;-52
2023/07/02 06:47:19;;;;;;;21.30;13.70;;;16.40;99.90;;;;;;5098192;28;20172;-55
2023/07/02 06:49:45;;;;;;;22.30;12.60;;;16.40;99.90;;;;;;5095966;28;20172;-55
2023/07/02 06:52:10;;;;;;;21.77;15.30;;;16.40;99.90;;;;;;5095922;28;20172;-51
2023/07/02 06:54:36;;;;;;;22.60;17.90;;;16.40;99.90;;;;;;5095704;28;20204;-56
2023/07/02 06:57:01;;;;;;;22.23;16.93;;;16.50;99.90;;;;;;5095775;28;20599;-53
2023/07/02 06:59:27;;;;;;;32.70;18.30;;;16.50;99.90;;;;;;5094664;28;20201;-53
2023/07/02 07:01:53;;;;;;;28.37;16.43;;;16.50;99.90;;;;;;5094184;28;20178;-53
2023/07/02 07:04:19;;;;;;;20.70;16.63;;;16.50;99.90;;;;;;5094968;28;20172;-50
2023/07/02 07:06:45;;;;;;;20.77;16.33;;;16.50;99.90;;;;;;5096360;28;20273;-54
2023/07/02 07:09:10;;;;;;;29.07;18.23;;;16.60;99.90;;;;;;5095747;28;20183;-55
2023/07/02 07:11:36;;;;;;;19.47;16.30;;;16.60;99.90;;;;;;5094757;28;20178;-55
2023/07/02 07:14:02;;;;;;;19.77;14.20;;;16.60;99.90;;;;;;5094925;28;20235;-54
2023/07/02 07:16:27;;;;;;;20.57;11.77;;;16.60;99.90;;;;;;5093453;28;20179;-56
2023/07/02 07:18:53;;;;;;;20.27;8.90;;;16.60;99.90;;;;;;5095714;28;20169;-56
2023/07/02 07:21:18;;;;;;;20.20;7.17;;;16.60;99.90;;;;;;5095622;28;20168;-54
2023/07/02 07:23:44;;;;;;;17.23;7.80;;;16.70;99.90;;;;;;5096443;28;20237;-56
2023/07/02 07:26:10;;;;;;;19.00;7.07;;;16.70;99.90;;;;;;5096399;28;20172;-51
2023/07/02 07:28:35;;;;;;;21.50;7.70;;;16.70;99.90;;;;;;5096754;28;20171;-55
2023/07/02 07:31:01;;;;;;;19.80;8.17;;;16.70;99.90;;;;;;5096001;28;20240;-54
2023/07/02 07:33:27;;;;;;;15.07;7.97;;;16.70;99.90;;;;;;5096653;28;20519;-54
2023/07/02 07:35:53;;;;;;;20.10;7.40;;;16.60;99.90;;;;;;5097849;28;20552;-55
2023/07/02 07:38:18;;;;;;;15.90;6.53;;;16.60;99.90;;;;;;5098932;28;20204;-53
2023/07/02 07:40:44;;;;;;;16.10;7.50;;;16.60;99.90;;;;;;5097705;28;20188;-52
2023/07/02 07:43:10;;;;;;;13.17;7.20;;;16.60;99.90;;;;;;5096946;28;20183;-53
2023/07/02 07:45:36;;;;;;;15.97;7.33;;;16.60;99.90;;;;;;5097638;28;20172;-52
2023/07/02 07:48:02;;;;;;;18.77;7.07;;;16.60;99.90;;;;;;5097641;28;20180;-54
2023/07/02 07:50:28;;;;;;;21.03;6.83;;;16.70;99.90;;;;;;5095136;28;20233;-56
2023/07/02 07:52:53;;;;;;;19.57;7.27;;;16.70;99.90;;;;;;5093917;28;20169;-54
2023/07/02 07:55:19;;;;;;;18.67;8.50;;;16.70;99.90;;;;;;5095094;28;20207;-53
2023/07/02 07:57:45;;;;;;;16.47;6.40;;;16.70;99.90;;;;;;5096277;28;20171;-53
2023/07/02 08:00:11;;;;;;;16.53;6.20;;;16.70;99.90;;;;;;5096502;28;20188;-52
2023/07/02 08:02:36;;;;;;;16.17;7.37;;;16.70;99.90;;;;;;5095616;28;20176;-56
2023/07/02 08:05:03;;;;;;;16.50;7.03;;;16.80;99.90;;;;;;5095394;28;20203;-54
2023/07/02 08:07:30;;;;;;;18.73;7.63;;;16.90;99.90;;;;;;5094131;28;20305;-55
2023/07/02 08:10:00;;;;;;;18.93;7.70;;;16.90;99.90;;;;;;5093285;28;20736;-52
2023/07/02 08:12:31;;;;;;;15.63;6.77;;;16.90;99.90;;;;;;5094813;28;20164;-55
2023/07/02 08:14:57;;;;;;;16.73;7.60;;;17.10;99.90;;;;;;5093894;28;20204;-56
2023/07/02 08:17:22;;;;;;;16.97;6.73;;;17.10;99.90;;;;;;5093369;28;20175;-57
2023/07/02 08:19:48;;;;;;;16.10;6.93;;;17.10;99.90;;;;;;5095503;28;20172;-57
2023/07/02 08:22:14;;;;;;;18.07;8.57;;;17.20;99.90;;;;;;5092540;28;20179;-53
2023/07/02 08:24:39;;;;;;;13.17;7.67;;;17.20;99.90;;;;;;5093385;28;20168;-50
2023/07/02 08:27:05;;;;;;;14.23;8.53;;;17.30;99.90;;;;;;5092474;28;20619;-56
2023/07/02 08:29:31;;;;;;;16.03;10.97;;;17.30;99.90;;;;;;5090517;28;20668;-57
2023/07/02 08:31:57;;;;;;;17.67;10.70;;;17.30;99.90;;;;;;5091109;28;20227;-54
2023/07/02 08:34:23;;;;;;;14.97;10.00;;;17.20;99.90;;;;;;5089960;28;20294;-57
2023/07/02 08:36:48;;;;;;;15.47;9.07;;;17.30;99.90;;;;;;5091191;28;20160;-55
2023/07/02 08:39:16;;;;;;;14.63;9.43;;;17.30;99.90;;;;;;5091822;28;20231;-54
2023/07/02 08:41:44;;;;;;;14.50;8.47;;;17.30;99.90;;;;;;5093603;28;20175;-54
2023/07/02 08:44:13;;;;;;;14.90;8.53;;;17.30;99.90;;;;;;5093084;28;20168;-56
2023/07/02 08:46:39;;;;;;;12.17;8.00;;;17.40;99.90;;;;;;5093494;28;20275;-53
2023/07/02 08:49:06;;;;;;;13.60;7.70;;;17.40;99.90;;;;;;5091932;28;20172;-54
2023/07/02 08:51:31;;;;;;;11.27;5.70;;;17.40;99.90;;;;;;5092642;28;20207;-55
2023/07/02 08:53:57;;;;;;;13.27;6.07;;;17.50;99.90;;;;;;5093494;28;20243;-54
2023/07/02 08:56:23;;;;;;;11.77;5.20;;;17.50;99.90;;;;;;5095028;28;20160;-57
2023/07/02 08:58:49;;;;;;;11.27;5.37;;;17.60;99.90;;;;;;5096096;28;20172;-55
2023/07/02 09:01:14;;;;;;;12.53;5.17;;;17.70;99.90;;;;;;5095984;28;20382;-57
2023/07/02 09:03:41;;;;;;;7.97;5.33;;;17.80;99.90;;;;;;5095690;28;20291;-56
2023/07/02 09:06:11;;;;;;;16.73;5.10;;;17.80;99.90;;;;;;5094909;28;20187;-55
2023/07/02 09:08:37;;;;;;;11.50;4.70;;;17.90;99.90;;;;;;5095935;28;20772;-56
2023/07/02 09:11:08;;;;;;;7.90;4.97;;;17.90;99.90;;;;;;5094648;28;20583;-56
2023/07/02 09:13:48;;;;;;;14.03;5.27;;;18.00;99.90;;;;;;5095247;28;20196;-55
2023/07/02 09:16:21;;;;;;;13.50;8.87;;;18.00;99.90;;;;;;5094955;28;20179;-56
2023/07/02 09:19:12;;;;;;;11.67;4.77;;;18.00;99.90;;;;;;5094409;28;20228;-55
2023/07/02 09:21:45;;;;;;;12.77;9.70;;;17.90;99.90;;;;;;5093945;28;20160;-54
2023/07/02 09:24:19;;;;;;;12.13;4.63;;;17.80;99.90;;;;;;5092405;28;20175;-55
2023/07/02 09:26:53;;;;;;;11.03;4.70;;;17.70;99.90;;;;;;5090823;28;20263;-57
2023/07/02 09:29:29;;;;;;;12.23;4.60;;;17.60;99.90;;;;;;5089210;28;20164;-55
2023/07/02 09:32:00;;;;;;;15.70;4.80;;;17.50;99.90;;;;;;5089714;28;20224;-56
2023/07/02 09:34:36;;;;;;;12.97;6.03;;;17.40;99.90;;;;;;5089329;28;20207;-56
2023/07/02 09:37:05;;;;;;;15.87;7.10;;;17.10;99.90;;;;;;5092365;28;20170;-52
2023/07/02 09:39:32;;;;;;;13.27;8.93;;;16.90;99.90;;;;;;5092904;28;20175;-54
2023/07/02 09:41:59;;;;;;;13.53;6.67;;;16.80;99.90;;;;;;5092426;28;20173;-56
2023/07/02 09:44:29;;;;;;;14.40;11.10;;;16.70;99.90;;;;;;5091672;28;20179;-53
2023/07/02 09:47:05;;;;;;;20.27;18.20;;;16.60;99.90;;;;;;5091527;28;20253;-53
2023/07/02 09:49:39;;;;;;;17.37;14.27;;;16.60;99.90;;;;;;5090981;28;20199;-55
2023/07/02 09:52:11;;;;;;;18.83;17.13;;;16.70;99.90;;;;;;5091002;28;20801;-57
2023/07/02 09:54:38;;;;;;;16.53;15.07;;;16.80;99.90;;;;;;5092303;28;20196;-55
2023/07/02 09:57:04;;;;;;;16.70;11.27;;;16.90;99.90;;;;;;5091886;28;20172;-54
2023/07/02 09:59:30;;;;;;;12.17;7.07;;;17.00;99.90;;;;;;5091905;28;20270;-55
2023/07/02 10:01:56;;;;;;;12.17;6.50;;;17.10;99.90;;;;;;5091899;28;20266;-56
2023/07/02 10:04:25;;;;;;;9.47;5.70;;;17.30;99.90;;;;;;5090346;28;20536;-56
2023/07/02 10:06:53;;;;;;;11.53;4.37;;;17.50;99.90;;;;;;5090280;28;20221;-56
2023/07/02 10:09:19;;;;;;;8.47;3.80;;;17.70;99.90;;;;;;5091565;28;20249;-56
2023/07/02 10:11:45;;;;;;;6.27;3.93;;;17.80;99.90;;;;;;5091420;28;20686;-55
2023/07/02 10:14:11;;;;;;;7.43;3.80;;;17.80;99.90;;;;;;5094412;28;20199;-55
2023/07/02 10:16:50;;;;;;;10.23;3.67;;;17.80;99.90;;;;;;5093413;28;20237;-56
2023/07/02 10:19:16;;;;;;;8.47;3.87;;;17.90;99.90;;;;;;5095316;28;20167;-54
2023/07/02 10:21:42;;;;;;;10.63;4.50;;;18.00;99.90;;;;;;5093955;28;20172;-56
2023/07/02 10:24:12;;;;;;;8.93;4.13;;;18.00;99.90;;;;;;5094662;28;20200;-53
2023/07/02 10:26:38;;;;;;;12.10;4.50;;;18.10;99.90;;;;;;5092615;28;20171;-54
2023/07/02 10:29:03;;;;;;;8.07;4.60;;;18.20;99.90;;;;;;5092672;28;20176;-52
2023/07/02 10:31:29;;;;;;;9.47;4.47;;;18.20;99.90;;;;;;5092657;28;20634;-55
2023/07/02 10:33:55;;;;;;;10.40;4.50;;;18.20;99.90;;;;;;5091959;28;20203;-56
2023/07/02 10:36:22;;;;;;;12.80;5.00;;;18.20;99.90;;;;;;5082304;28;20179;-53
2023/07/02 10:38:49;;;;;;;11.40;4.00;;;18.20;99.90;;;;;;5082141;28;20415;-51
2023/07/02 10:41:28;;;;;;;11.70;3.93;;;18.10;99.90;;;;;;5082478;28;20387;-54
2023/07/02 10:43:54;;;;;;;12.60;3.80;;;17.90;99.90;;;;;;5082205;28;20285;-52
2023/07/02 10:46:22;;;;;;;11.70;4.23;;;17.90;99.90;;;;;;5082569;28;20401;-55
2023/07/02 10:48:52;;;;;;;9.13;3.80;;;17.80;99.90;;;;;;5082342;28;20207;-56
2023/07/02 10:51:18;;;;;;;9.97;4.13;;;17.80;99.90;;;;;;5081481;28;20203;-52
2023/07/02 10:53:43;;;;;;;10.70;4.47;;;17.80;99.90;;;;;;5076984;28;20227;-57
2023/07/02 10:56:16;;;;;;;11.07;4.50;;;17.70;99.90;;;;;;5076592;28;20511;-56
2023/07/02 10:58:43;;;;;;;10.23;4.67;;;17.70;99.90;;;;;;5078422;28;20347;-57
2023/07/02 11:01:08;;;;;;;7.40;4.20;;;17.60;99.90;;;;;;5079773;28;20194;-54
2023/07/02 11:03:34;;;;;;;9.23;3.80;;;17.60;99.90;;;;;;5086678;28;20168;-54
2023/07/02 11:05:59;;;;;;;11.00;4.53;;;17.60;99.90;;;;;;5086634;28;20464;-56
2023/07/02 11:08:35;;;;;;;12.00;4.50;;;17.60;99.90;;;;;;5090541;28;20208;-56
2023/07/02 11:11:07;;;;;;;9.87;3.93;;;17.60;99.90;;;;;;5089789;28;20166;-58
2023/07/02 11:13:33;;;;;;;6.27;3.70;;;17.70;99.90;;;;;;5089211;28;20200;-56
2023/07/02 11:15:58;;;;;;;9.97;3.57;;;17.80;99.90;;;;;;5090553;28;20171;-55
2023/07/02 11:18:24;;;;;;;11.10;4.20;;;17.80;99.90;;;;;;5091363;28;20272;-57
2023/07/02 11:20:49;;;;;;;9.03;3.53;;;17.90;99.90;;;;;;5088820;28;20733;-56
2023/07/02 11:23:24;;;;;;;10.77;3.33;;;18.00;99.90;;;;;;5086539;28;20187;-57
2023/07/02 11:25:57;;;;;;;9.33;3.83;;;18.10;99.90;;;;;;5087468;28;20167;-54
2023/07/02 11:28:23;;;;;;;11.50;3.47;;;18.30;99.90;;;;;;5088179;28;20290;-56
2023/07/02 11:30:48;;;;;;;5.70;3.57;;;18.30;99.90;;;;;;5086479;28;20343;-52
2023/07/02 11:33:14;;;;;;;7.60;3.20;;;18.40;99.90;;;;;;5087388;28;20164;-52
2023/07/02 11:35:40;;;;;;;6.07;2.80;;;18.40;99.90;;;;;;5087808;28;20176;-56
2023/07/02 11:38:06;;;;;;;8.13;4.03;;;18.40;99.90;;;;;;5088876;28;20754;-57
2023/07/02 11:40:32;;;;;;;9.90;3.53;;;18.40;99.90;;;;;;5087278;28;20544;-56
2023/07/02 11:42:57;;;;;;;7.37;3.33;;;18.40;99.90;;;;;;5088655;28;20164;-56
2023/07/02 11:45:23;;;;;;;6.23;3.07;;;18.50;99.90;;;;;;5087449;28;20184;-53
2023/07/02 11:47:49;;;;;;;10.00;2.90;;;18.60;99.90;;;;;;5084506;28;20261;-54
2023/07/02 11:50:14;;;;;;;7.03;3.43;;;18.80;99.90;;;;;;5082198;28;20296;-57
2023/07/02 11:52:40;;;;;;;7.03;2.83;;;18.90;99.90;;;;;;5081551;28;20172;-56
2023/07/02 11:55:07;;;;;;;9.03;3.87;;;18.90;99.90;;;;;;5080769;28;20276;-56
2023/07/02 11:57:33;;;;;;;14.90;3.40;;;18.90;99.90;;;;;;5081150;28;20247;-57
2023/07/02 11:59:59;;;;;;;6.50;3.30;;;18.90;99.90;;;;;;5080554;28;20407;-54
2023/07/02 12:02:25;;;;;;;6.00;2.90;;;18.80;99.90;;;;;;5086209;28;20190;-53
2023/07/02 12:04:51;;;;;;;7.50;3.73;;;18.80;99.90;;;;;;5088983;28;20180;-54
2023/07/02 12:07:16;;;;;;;6.30;3.07;;;18.80;99.90;;;;;;5090373;28;20167;-56
2023/07/02 12:09:42;;;;;;;11.33;3.37;;;18.70;99.90;;;;;;5089910;28;20176;-55
2023/07/02 12:12:07;;;;;;;7.23;4.23;;;18.70;99.90;;;;;;5092088;28;20168;-53
2023/07/02 12:14:33;;;;;;;7.70;3.30;;;18.70;99.90;;;;;;5091084;28;20735;-54
2023/07/02 12:16:59;;;;;;;8.23;3.97;;;18.70;99.90;;;;;;5089331;28;20755;-54
2023/07/02 12:19:24;;;;;;;10.37;3.20;;;18.70;99.90;;;;;;5086680;28;20282;-53
2023/07/02 12:21:50;;;;;;;7.97;3.33;;;18.70;99.90;;;;;;5086861;28;20160;-55
2023/07/02 12:24:15;;;;;;;6.93;2.83;;;18.70;99.90;;;;;;5086063;28;20172;-54
2023/07/02 12:26:42;;;;;;;6.27;2.77;;;18.80;99.90;;;;;;5084305;28;20207;-52
2023/07/02 12:29:08;;;;;;;10.63;2.63;;;19.00;99.90;;;;;;5084029;28;20291;-57
2023/07/02 12:31:33;;;;;;;9.93;2.97;;;19.20;99.90;;;;;;5084886;28;20227;-53
2023/07/02 12:33:59;;;;;;;7.00;3.10;;;19.30;99.90;;;;;;5085589;28;20184;-56
2023/07/02 12:36:25;;;;;;;6.17;3.57;;;19.40;99.90;;;;;;5087361;28;20237;-55
2023/07/02 12:38:50;;;;;;;6.53;3.73;;;19.50;99.90;;;;;;5087005;28;20168;-55